Terminal Aerodrome Forecast
Issued by NWS

Home | Current Version | Previous Version | Graphics & Text | Print | Product List | Glossary On
Versions: 1 2 3 4 5 6 7 8 9 10 11 12 13 14 15 16
101
FTUS42 KMHX 172353
TAFPGV
TAF
KPGV 172353Z 1800/1824 01011KT 2SM -SN OVC007
     FM180500 34010KT 3SM -SN SCT007 BKN015
     FM180700 34010KT P6SM SCT020 BKN040
     FM181000 33009KT P6SM SCT100
     FM181600 29009KT P6SM SKC
      AMD LTD TO CLD VIS AND WIND=

USA.gov is the U.S. government's official web portal to all federal, state and local government web resources and services.